sensor_id;sensor_type;location;lat;lon;timestamp;temperature;humidity
27559;DHT22;15002;52.028;5.670;2023-08-24T00:01:06;21.40;99.90
27559;DHT22;15002;52.028;5.670;2023-08-24T00:03:33;21.60;99.90
27559;DHT22;15002;52.028;5.670;2023-08-24T00:05:58;21.50;99.90
27559;DHT22;15002;52.028;5.670;2023-08-24T00:08:24;21.70;99.90
27559;DHT22;15002;52.028;5.670;2023-08-24T00:10:50;21.50;99.90
27559;DHT22;15002;52.028;5.670;2023-08-24T00:13:15;21.50;99.90
27559;DHT22;15002;52.028;5.670;2023-08-24T00:15:41;21.50;99.90
27559;DHT22;15002;52.028;5.670;2023-08-24T00:18:07;21.40;99.90
27559;DHT22;15002;52.028;5.670;2023-08-24T00:20:33;21.50;99.90
27559;DHT22;15002;52.028;5.670;2023-08-24T00:22:59;21.40;99.90
27559;DHT22;15002;52.028;5.670;2023-08-24T00:25:25;21.50;99.90
27559;DHT22;15002;52.028;5.670;2023-08-24T00:27:53;21.50;99.90
27559;DHT22;15002;52.028;5.670;2023-08-24T00:30:19;21.30;99.90
27559;DHT22;15002;52.028;5.670;2023-08-24T00:32:44;21.00;99.90
27559;DHT22;15002;52.028;5.670;2023-08-24T00:35:10;21.10;99.90
27559;DHT22;15002;52.028;5.670;2023-08-24T00:37:36;20.90;99.90
27559;DHT22;15002;52.028;5.670;2023-08-24T00:40:03;21.30;99.90
27559;DHT22;15002;52.028;5.670;2023-08-24T00:42:39;21.20;99.90
27559;DHT22;15002;52.028;5.670;2023-08-24T00:45:09;21.30;99.90
27559;DHT22;15002;52.028;5.670;2023-08-24T00:47:40;21.30;99.90
27559;DHT22;15002;52.028;5.670;2023-08-24T00:50:06;21.20;99.90
27559;DHT22;15002;52.028;5.670;2023-08-24T00:52:32;20.90;99.90
27559;DHT22;15002;52.028;5.670;2023-08-24T00:55:01;21.10;99.90
27559;DHT22;15002;52.028;5.670;2023-08-24T00:57:28;21.30;99.90
27559;DHT22;15002;52.028;5.670;2023-08-24T00:59:55;21.30;99.90
27559;DHT22;15002;52.028;5.670;2023-08-24T01:02:21;21.40;99.90
27559;DHT22;15002;52.028;5.670;2023-08-24T01:04:47;21.10;99.90
27559;DHT22;15002;52.028;5.670;2023-08-24T01:07:14;21.00;99.90
27559;DHT22;15002;52.028;5.670;2023-08-24T01:09:40;20.80;99.90
27559;DHT22;15002;52.028;5.670;2023-08-24T01:15:17;20.60;99.90
27559;DHT22;15002;52.028;5.670;2023-08-24T01:17:45;20.50;99.90
27559;DHT22;15002;52.028;5.670;2023-08-24T01:20:13;20.40;99.90
27559;DHT22;15002;52.028;5.670;2023-08-24T01:23:07;20.80;99.90
27559;DHT22;15002;52.028;5.670;2023-08-24T01:25:38;21.00;99.90
27559;DHT22;15002;52.028;5.670;2023-08-24T01:28:06;21.10;99.90
27559;DHT22;15002;52.028;5.670;2023-08-24T01:30:34;21.30;99.90
27559;DHT22;15002;52.028;5.670;2023-08-24T01:33:03;21.40;99.90
27559;DHT22;15002;52.028;5.670;2023-08-24T01:35:30;20.90;99.90
27559;DHT22;15002;52.028;5.670;2023-08-24T01:37:56;20.90;99.90
27559;DHT22;15002;52.028;5.670;2023-08-24T01:40:36;21.00;99.90
27559;DHT22;15002;52.028;5.670;2023-08-24T01:43:06;20.80;99.90
27559;DHT22;15002;52.028;5.670;2023-08-24T01:45:33;20.90;99.90
27559;DHT22;15002;52.028;5.670;2023-08-24T01:48:03;20.70;99.90
27559;DHT22;15002;52.028;5.670;2023-08-24T01:50:29;20.80;99.90
27559;DHT22;15002;52.028;5.670;2023-08-24T01:52:56;20.70;99.90
27559;DHT22;15002;52.028;5.670;2023-08-24T01:55:23;20.70;99.90
27559;DHT22;15002;52.028;5.670;2023-08-24T01:57:49;20.90;99.90
27559;DHT22;15002;52.028;5.670;2023-08-24T02:00:15;20.80;99.90
27559;DHT22;15002;52.028;5.670;2023-08-24T02:02:44;20.90;99.90
27559;DHT22;15002;52.028;5.670;2023-08-24T02:05:10;21.00;99.90
27559;DHT22;15002;52.028;5.670;2023-08-24T02:07:36;20.90;99.90
27559;DHT22;15002;52.028;5.670;2023-08-24T02:10:02;20.90;99.90
27559;DHT22;15002;52.028;5.670;2023-08-24T02:12:27;21.00;99.90
27559;DHT22;15002;52.028;5.670;2023-08-24T02:14:53;21.00;99.90
27559;DHT22;15002;52.028;5.670;2023-08-24T02:17:18;21.30;99.90
27559;DHT22;15002;52.028;5.670;2023-08-24T02:19:44;21.80;99.90
27559;DHT22;15002;52.028;5.670;2023-08-24T02:22:10;21.70;99.90
27559;DHT22;15002;52.028;5.670;2023-08-24T02:24:35;21.70;99.90
27559;DHT22;15002;52.028;5.670;2023-08-24T02:27:01;21.60;99.90
27559;DHT22;15002;52.028;5.670;2023-08-24T02:29:27;21.40;99.90
27559;DHT22;15002;52.028;5.670;2023-08-24T02:31:53;21.40;99.90
27559;DHT22;15002;52.028;5.670;2023-08-24T02:34:19;21.40;99.90
27559;DHT22;15002;52.028;5.670;2023-08-24T02:36:44;21.40;99.90
27559;DHT22;15002;52.028;5.670;2023-08-24T02:39:10;21.10;99.90
27559;DHT22;15002;52.028;5.670;2023-08-24T02:41:36;21.10;99.90
27559;DHT22;15002;52.028;5.670;2023-08-24T02:44:02;21.30;99.90
27559;DHT22;15002;52.028;5.670;2023-08-24T02:46:28;21.10;99.90
27559;DHT22;15002;52.028;5.670;2023-08-24T02:48:54;20.90;99.90
27559;DHT22;15002;52.028;5.670;2023-08-24T02:51:22;20.90;99.90
27559;DHT22;15002;52.028;5.670;2023-08-24T02:53:48;21.10;99.90
27559;DHT22;15002;52.028;5.670;2023-08-24T02:56:14;21.30;99.90
27559;DHT22;15002;52.028;5.670;2023-08-24T02:58:39;21.50;99.90
27559;DHT22;15002;52.028;5.670;2023-08-24T03:01:08;21.60;99.90
27559;DHT22;15002;52.028;5.670;2023-08-24T03:03:37;21.80;99.90
27559;DHT22;15002;52.028;5.670;2023-08-24T03:06:05;21.50;99.90
27559;DHT22;15002;52.028;5.670;2023-08-24T03:08:32;21.40;99.90
27559;DHT22;15002;52.028;5.670;2023-08-24T03:10:59;21.50;99.90
27559;DHT22;15002;52.028;5.670;2023-08-24T03:13:25;21.50;99.90
27559;DHT22;15002;52.028;5.670;2023-08-24T03:15:51;21.20;99.90
27559;DHT22;15002;52.028;5.670;2023-08-24T03:18:18;21.20;99.90
27559;DHT22;15002;52.028;5.670;2023-08-24T03:20:45;21.10;99.90
27559;DHT22;15002;52.028;5.670;2023-08-24T03:23:11;21.20;99.90
27559;DHT22;15002;52.028;5.670;2023-08-24T03:25:39;21.20;99.90
27559;DHT22;15002;52.028;5.670;2023-08-24T03:28:06;21.10;99.90
27559;DHT22;15002;52.028;5.670;2023-08-24T03:30:36;20.80;99.90
27559;DHT22;15002;52.028;5.670;2023-08-24T03:33:01;20.70;99.90
27559;DHT22;15002;52.028;5.670;2023-08-24T03:35:29;20.80;99.90
27559;DHT22;15002;52.028;5.670;2023-08-24T03:37:55;20.60;99.90
27559;DHT22;15002;52.028;5.670;2023-08-24T03:40:21;20.50;99.90
27559;DHT22;15002;52.028;5.670;2023-08-24T03:42:47;20.40;99.90
27559;DHT22;15002;52.028;5.670;2023-08-24T03:45:12;20.30;99.90
27559;DHT22;15002;52.028;5.670;2023-08-24T03:47:38;20.40;99.90
27559;DHT22;15002;52.028;5.670;2023-08-24T03:50:04;20.50;99.90
27559;DHT22;15002;52.028;5.670;2023-08-24T03:52:30;20.50;99.90
27559;DHT22;15002;52.028;5.670;2023-08-24T03:54:57;20.40;99.90
27559;DHT22;15002;52.028;5.670;2023-08-24T03:57:22;20.50;99.90
27559;DHT22;15002;52.028;5.670;2023-08-24T03:59:48;20.50;99.90
27559;DHT22;15002;52.028;5.670;2023-08-24T04:02:14;20.30;99.90
27559;DHT22;15002;52.028;5.670;2023-08-24T04:04:40;20.00;99.90
27559;DHT22;15002;52.028;5.670;2023-08-24T04:07:05;20.30;99.90
27559;DHT22;15002;52.028;5.670;2023-08-24T04:09:31;20.30;99.90
27559;DHT22;15002;52.028;5.670;2023-08-24T04:11:57;20.40;99.90
27559;DHT22;15002;52.028;5.670;2023-08-24T04:14:22;20.50;99.90
27559;DHT22;15002;52.028;5.670;2023-08-24T04:16:48;20.30;99.90
27559;DHT22;15002;52.028;5.670;2023-08-24T04:19:13;20.30;99.90
27559;DHT22;15002;52.028;5.670;2023-08-24T04:21:39;20.50;99.90
27559;DHT22;15002;52.028;5.670;2023-08-24T04:24:05;20.50;99.90
27559;DHT22;15002;52.028;5.670;2023-08-24T04:26:31;20.50;99.90
27559;DHT22;15002;52.028;5.670;2023-08-24T04:28:56;20.40;99.90
27559;DHT22;15002;52.028;5.670;2023-08-24T04:31:22;20.30;99.90
27559;DHT22;15002;52.028;5.670;2023-08-24T04:33:48;20.10;99.90
27559;DHT22;15002;52.028;5.670;2023-08-24T04:36:13;20.10;99.90
27559;DHT22;15002;52.028;5.670;2023-08-24T04:38:39;20.00;99.90
27559;DHT22;15002;52.028;5.670;2023-08-24T04:41:07;20.20;99.90
27559;DHT22;15002;52.028;5.670;2023-08-24T04:43:34;20.40;99.90
27559;DHT22;15002;52.028;5.670;2023-08-24T04:45:59;20.40;99.90
27559;DHT22;15002;52.028;5.670;2023-08-24T04:48:25;20.20;99.90
27559;DHT22;15002;52.028;5.670;2023-08-24T04:50:52;20.20;99.90
27559;DHT22;15002;52.028;5.670;2023-08-24T04:53:21;20.10;99.90
27559;DHT22;15002;52.028;5.670;2023-08-24T04:55:47;20.10;99.90
27559;DHT22;15002;52.028;5.670;2023-08-24T04:58:13;20.00;99.90
27559;DHT22;15002;52.028;5.670;2023-08-24T05:00:39;20.10;99.90
27559;DHT22;15002;52.028;5.670;2023-08-24T05:03:05;20.00;99.90
27559;DHT22;15002;52.028;5.670;2023-08-24T05:05:32;20.10;99.90
27559;DHT22;15002;52.028;5.670;2023-08-24T05:07:59;20.00;99.90
27559;DHT22;15002;52.028;5.670;2023-08-24T05:10:25;20.30;99.90
27559;DHT22;15002;52.028;5.670;2023-08-24T05:12:51;20.20;99.90
27559;DHT22;15002;52.028;5.670;2023-08-24T05:15:17;20.10;99.90
27559;DHT22;15002;52.028;5.670;2023-08-24T05:17:42;20.10;99.90
27559;DHT22;15002;52.028;5.670;2023-08-24T05:20:08;20.20;99.90
27559;DHT22;15002;52.028;5.670;2023-08-24T05:22:38;20.20;99.90
27559;DHT22;15002;52.028;5.670;2023-08-24T05:25:04;20.20;99.90
27559;DHT22;15002;52.028;5.670;2023-08-24T05:27:32;20.40;99.90
27559;DHT22;15002;52.028;5.670;2023-08-24T05:29:58;20.30;99.90
27559;DHT22;15002;52.028;5.670;2023-08-24T05:32:24;20.10;99.90
27559;DHT22;15002;52.028;5.670;2023-08-24T05:34:50;20.20;99.90
27559;DHT22;15002;52.028;5.670;2023-08-24T05:37:16;20.70;99.90
27559;DHT22;15002;52.028;5.670;2023-08-24T05:39:42;20.70;99.90
27559;DHT22;15002;52.028;5.670;2023-08-24T05:42:08;20.90;99.90
27559;DHT22;15002;52.028;5.670;2023-08-24T05:44:34;20.90;99.90
27559;DHT22;15002;52.028;5.670;2023-08-24T05:47:00;21.10;99.90
27559;DHT22;15002;52.028;5.670;2023-08-24T05:49:25;21.20;99.90
27559;DHT22;15002;52.028;5.670;2023-08-24T05:51:52;20.90;99.90
27559;DHT22;15002;52.028;5.670;2023-08-24T05:54:18;21.10;99.90
27559;DHT22;15002;52.028;5.670;2023-08-24T05:56:44;21.20;99.90
27559;DHT22;15002;52.028;5.670;2023-08-24T05:59:10;21.20;99.90
27559;DHT22;15002;52.028;5.670;2023-08-24T06:01:36;21.20;99.90
27559;DHT22;15002;52.028;5.670;2023-08-24T06:04:07;21.40;99.90
27559;DHT22;15002;52.028;5.670;2023-08-24T06:06:33;21.30;99.90
27559;DHT22;15002;52.028;5.670;2023-08-24T06:08:59;21.20;99.90
27559;DHT22;15002;52.028;5.670;2023-08-24T06:11:24;20.90;99.90
27559;DHT22;15002;52.028;5.670;2023-08-24T06:13:50;20.90;99.90
27559;DHT22;15002;52.028;5.670;2023-08-24T06:16:19;21.40;99.90
27559;DHT22;15002;52.028;5.670;2023-08-24T06:18:45;21.30;99.90
27559;DHT22;15002;52.028;5.670;2023-08-24T06:21:11;21.40;99.90
27559;DHT22;15002;52.028;5.670;2023-08-24T06:23:37;21.20;99.90
27559;DHT22;15002;52.028;5.670;2023-08-24T06:26:03;21.30;99.90
27559;DHT22;15002;52.028;5.670;2023-08-24T06:28:30;21.90;99.90
27559;DHT22;15002;52.028;5.670;2023-08-24T06:30:56;22.10;99.90
27559;DHT22;15002;52.028;5.670;2023-08-24T06:33:27;21.70;99.90
27559;DHT22;15002;52.028;5.670;2023-08-24T06:35:56;22.20;99.90
27559;DHT22;15002;52.028;5.670;2023-08-24T06:38:22;22.70;99.90
27559;DHT22;15002;52.028;5.670;2023-08-24T06:40:48;23.00;99.90
27559;DHT22;15002;52.028;5.670;2023-08-24T06:43:13;23.60;99.90
27559;DHT22;15002;52.028;5.670;2023-08-24T06:45:40;23.90;99.90
27559;DHT22;15002;52.028;5.670;2023-08-24T06:48:06;24.10;99.90
27559;DHT22;15002;52.028;5.670;2023-08-24T06:50:33;24.90;99.90
27559;DHT22;15002;52.028;5.670;2023-08-24T06:52:58;25.30;99.90
27559;DHT22;15002;52.028;5.670;2023-08-24T06:55:25;26.20;99.90
27559;DHT22;15002;52.028;5.670;2023-08-24T06:57:51;26.30;99.90
27559;DHT22;15002;52.028;5.670;2023-08-24T07:00:18;26.80;99.90
27559;DHT22;15002;52.028;5.670;2023-08-24T07:02:54;27.70;99.90
27559;DHT22;15002;52.028;5.670;2023-08-24T07:05:20;27.60;99.90
27559;DHT22;15002;52.028;5.670;2023-08-24T07:07:49;27.30;99.90
27559;DHT22;15002;52.028;5.670;2023-08-24T07:10:15;27.00;99.90
27559;DHT22;15002;52.028;5.670;2023-08-24T07:12:41;28.00;99.90
27559;DHT22;15002;52.028;5.670;2023-08-24T07:15:07;28.50;99.90
27559;DHT22;15002;52.028;5.670;2023-08-24T07:17:33;28.80;99.90
27559;DHT22;15002;52.028;5.670;2023-08-24T07:19:59;28.80;99.90
27559;DHT22;15002;52.028;5.670;2023-08-24T07:22:25;29.10;99.90
27559;DHT22;15002;52.028;5.670;2023-08-24T07:24:53;29.40;99.90
27559;DHT22;15002;52.028;5.670;2023-08-24T07:27:19;29.00;99.90
27559;DHT22;15002;52.028;5.670;2023-08-24T07:29:45;29.60;99.90
27559;DHT22;15002;52.028;5.670;2023-08-24T07:32:10;29.10;99.90
27559;DHT22;15002;52.028;5.670;2023-08-24T07:34:37;29.70;99.90
27559;DHT22;15002;52.028;5.670;2023-08-24T07:37:02;30.10;99.90
27559;DHT22;15002;52.028;5.670;2023-08-24T07:39:28;29.50;99.90
27559;DHT22;15002;52.028;5.670;2023-08-24T07:41:54;29.70;99.90
27559;DHT22;15002;52.028;5.670;2023-08-24T07:44:20;30.00;99.90
27559;DHT22;15002;52.028;5.670;2023-08-24T07:46:47;30.20;99.90
27559;DHT22;15002;52.028;5.670;2023-08-24T07:49:13;31.00;99.40
27559;DHT22;15002;52.028;5.670;2023-08-24T07:51:38;30.50;99.70
27559;DHT22;15002;52.028;5.670;2023-08-24T07:54:04;30.70;99.40
27559;DHT22;15002;52.028;5.670;2023-08-24T07:56:32;30.70;99.00
27559;DHT22;15002;52.028;5.670;2023-08-24T07:58:58;30.90;98.40
27559;DHT22;15002;52.028;5.670;2023-08-24T08:01:24;31.20;97.10
27559;DHT22;15002;52.028;5.670;2023-08-24T08:03:49;31.00;96.50
27559;DHT22;15002;52.028;5.670;2023-08-24T08:06:15;31.40;95.60
27559;DHT22;15002;52.028;5.670;2023-08-24T08:08:41;31.20;95.40
27559;DHT22;15002;52.028;5.670;2023-08-24T08:11:06;31.00;95.60
27559;DHT22;15002;52.028;5.670;2023-08-24T08:13:32;30.30;96.10
27559;DHT22;15002;52.028;5.670;2023-08-24T08:16:05;30.30;96.70
27559;DHT22;15002;52.028;5.670;2023-08-24T08:18:35;30.70;95.90
27559;DHT22;15002;52.028;5.670;2023-08-24T08:21:08;31.10;95.90
27559;DHT22;15002;52.028;5.670;2023-08-24T08:23:34;30.20;97.30
27559;DHT22;15002;52.028;5.670;2023-08-24T08:25:59;30.50;96.60
27559;DHT22;15002;52.028;5.670;2023-08-24T08:28:25;30.70;95.00
27559;DHT22;15002;52.028;5.670;2023-08-24T08:30:51;30.70;95.10
27559;DHT22;15002;52.028;5.670;2023-08-24T08:33:16;30.30;95.00
27559;DHT22;15002;52.028;5.670;2023-08-24T08:35:42;30.10;95.00
27559;DHT22;15002;52.028;5.670;2023-08-24T08:38:08;30.30;94.70
27559;DHT22;15002;52.028;5.670;2023-08-24T08:40:37;30.50;94.10
27559;DHT22;15002;52.028;5.670;2023-08-24T08:43:03;30.30;94.80
27559;DHT22;15002;52.028;5.670;2023-08-24T08:45:29;30.50;94.00
27559;DHT22;15002;52.028;5.670;2023-08-24T08:47:59;30.50;94.70
27559;DHT22;15002;52.028;5.670;2023-08-24T08:50:25;30.00;95.00
27559;DHT22;15002;52.028;5.670;2023-08-24T08:52:51;29.40;96.10
27559;DHT22;15002;52.028;5.670;2023-08-24T08:55:17;29.70;96.90
27559;DHT22;15002;52.028;5.670;2023-08-24T08:57:47;30.10;95.70
27559;DHT22;15002;52.028;5.670;2023-08-24T09:00:15;30.00;96.30
27559;DHT22;15002;52.028;5.670;2023-08-24T09:02:44;29.60;96.90
27559;DHT22;15002;52.028;5.670;2023-08-24T09:05:11;29.30;97.40
27559;DHT22;15002;52.028;5.670;2023-08-24T09:07:39;29.20;98.20
27559;DHT22;15002;52.028;5.670;2023-08-24T09:10:05;29.60;97.50
27559;DHT22;15002;52.028;5.670;2023-08-24T09:12:32;29.90;97.10
27559;DHT22;15002;52.028;5.670;2023-08-24T09:14:58;29.90;97.80
27559;DHT22;15002;52.028;5.670;2023-08-24T09:17:24;30.00;97.40
27559;DHT22;15002;52.028;5.670;2023-08-24T09:19:58;30.10;97.50
27559;DHT22;15002;52.028;5.670;2023-08-24T09:22:24;30.50;96.70
27559;DHT22;15002;52.028;5.670;2023-08-24T09:24:49;30.60;96.60
27559;DHT22;15002;52.028;5.670;2023-08-24T09:27:21;30.80;96.00
27559;DHT22;15002;52.028;5.670;2023-08-24T09:29:53;30.20;97.00
27559;DHT22;15002;52.028;5.670;2023-08-24T09:32:24;30.40;97.40
27559;DHT22;15002;52.028;5.670;2023-08-24T09:34:50;30.60;96.40
27559;DHT22;15002;52.028;5.670;2023-08-24T09:37:16;30.10;97.50
27559;DHT22;15002;52.028;5.670;2023-08-24T09:39:42;30.30;97.10
27559;DHT22;15002;52.028;5.670;2023-08-24T09:42:08;30.50;97.00
27559;DHT22;15002;52.028;5.670;2023-08-24T09:44:34;30.80;96.90
27559;DHT22;15002;52.028;5.670;2023-08-24T09:46:59;30.30;97.60
27559;DHT22;15002;52.028;5.670;2023-08-24T09:49:25;30.00;98.30
27559;DHT22;15002;52.028;5.670;2023-08-24T09:51:56;30.10;98.10
27559;DHT22;15002;52.028;5.670;2023-08-24T09:54:26;30.70;96.90
27559;DHT22;15002;52.028;5.670;2023-08-24T09:56:54;30.90;96.40
27559;DHT22;15002;52.028;5.670;2023-08-24T09:59:21;30.60;97.20
27559;DHT22;15002;52.028;5.670;2023-08-24T10:01:51;30.30;98.40
27559;DHT22;15002;52.028;5.670;2023-08-24T10:04:24;30.00;98.70
27559;DHT22;15002;52.028;5.670;2023-08-24T10:06:54;30.40;97.50
27559;DHT22;15002;52.028;5.670;2023-08-24T10:09:31;30.30;97.70
27559;DHT22;15002;52.028;5.670;2023-08-24T10:12:02;30.70;97.50
27559;DHT22;15002;52.028;5.670;2023-08-24T10:17:39;30.30;98.00
27559;DHT22;15002;52.028;5.670;2023-08-24T10:20:06;30.40;97.80
27559;DHT22;15002;52.028;5.670;2023-08-24T10:22:35;30.50;97.60
27559;DHT22;15002;52.028;5.670;2023-08-24T10:25:04;30.20;98.30
27559;DHT22;15002;52.028;5.670;2023-08-24T10:27:31;30.00;98.80
27559;DHT22;15002;52.028;5.670;2023-08-24T10:29:57;30.00;98.30
27559;DHT22;15002;52.028;5.670;2023-08-24T10:32:26;29.70;99.70
27559;DHT22;15002;52.028;5.670;2023-08-24T10:34:52;29.40;99.90
27559;DHT22;15002;52.028;5.670;2023-08-24T10:37:25;29.10;99.90
27559;DHT22;15002;52.028;5.670;2023-08-24T10:39:51;28.90;99.90
27559;DHT22;15002;52.028;5.670;2023-08-24T10:42:17;29.20;99.90
27559;DHT22;15002;52.028;5.670;2023-08-24T10:44:46;29.20;99.90
27559;DHT22;15002;52.028;5.670;2023-08-24T10:47:20;29.50;99.90
27559;DHT22;15002;52.028;5.670;2023-08-24T10:52:25;29.30;99.90
27559;DHT22;15002;52.028;5.670;2023-08-24T10:54:54;28.80;99.90
27559;DHT22;15002;52.028;5.670;2023-08-24T10:57:23;28.90;99.90
27559;DHT22;15002;52.028;5.670;2023-08-24T10:59:59;28.50;99.90
27559;DHT22;15002;52.028;5.670;2023-08-24T11:02:25;28.30;99.90
27559;DHT22;15002;52.028;5.670;2023-08-24T11:05:04;28.40;99.90
27559;DHT22;15002;52.028;5.670;2023-08-24T11:07:31;28.30;99.90
27559;DHT22;15002;52.028;5.670;2023-08-24T11:09:56;28.00;99.90
27559;DHT22;15002;52.028;5.670;2023-08-24T11:12:22;28.40;99.90
27559;DHT22;15002;52.028;5.670;2023-08-24T11:14:52;28.30;99.90
27559;DHT22;15002;52.028;5.670;2023-08-24T11:17:22;28.10;99.90
27559;DHT22;15002;52.028;5.670;2023-08-24T11:19:52;28.10;99.90
27559;DHT22;15002;52.028;5.670;2023-08-24T11:22:18;27.70;99.90
27559;DHT22;15002;52.028;5.670;2023-08-24T11:24:45;27.60;99.90
27559;DHT22;15002;52.028;5.670;2023-08-24T11:27:11;27.50;99.90
27559;DHT22;15002;52.028;5.670;2023-08-24T11:29:36;27.50;99.90
27559;DHT22;15002;52.028;5.670;2023-08-24T11:32:03;27.50;99.90
27559;DHT22;15002;52.028;5.670;2023-08-24T11:34:30;27.50;99.90
27559;DHT22;15002;52.028;5.670;2023-08-24T11:36:55;27.60;99.90
27559;DHT22;15002;52.028;5.670;2023-08-24T11:39:22;28.10;99.90
27559;DHT22;15002;52.028;5.670;2023-08-24T11:42:05;28.00;99.90
27559;DHT22;15002;52.028;5.670;2023-08-24T11:44:49;28.30;99.90
27559;DHT22;15002;52.028;5.670;2023-08-24T11:47:16;28.50;99.90
27559;DHT22;15002;52.028;5.670;2023-08-24T11:49:42;28.40;99.90
27559;DHT22;15002;52.028;5.670;2023-08-24T11:52:08;28.40;99.90
27559;DHT22;15002;52.028;5.670;2023-08-24T11:54:34;28.20;99.90
27559;DHT22;15002;52.028;5.670;2023-08-24T11:56:59;28.30;99.90
27559;DHT22;15002;52.028;5.670;2023-08-24T11:59:26;28.50;99.90
27559;DHT22;15002;52.028;5.670;2023-08-24T12:01:52;28.60;99.90
27559;DHT22;15002;52.028;5.670;2023-08-24T12:04:18;28.50;99.90
27559;DHT22;15002;52.028;5.670;2023-08-24T12:06:44;28.60;99.90
27559;DHT22;15002;52.028;5.670;2023-08-24T12:09:10;28.20;99.90
27559;DHT22;15002;52.028;5.670;2023-08-24T12:11:36;28.20;99.90
27559;DHT22;15002;52.028;5.670;2023-08-24T12:14:02;28.20;99.90
27559;DHT22;15002;52.028;5.670;2023-08-24T12:16:31;28.30;99.90
27559;DHT22;15002;52.028;5.670;2023-08-24T12:18:58;28.40;99.90
27559;DHT22;15002;52.028;5.670;2023-08-24T12:21:31;28.60;99.90
27559;DHT22;15002;52.028;5.670;2023-08-24T12:24:04;28.80;99.90
27559;DHT22;15002;52.028;5.670;2023-08-24T12:26:35;29.00;99.90
27559;DHT22;15002;52.028;5.670;2023-08-24T12:29:03;28.90;99.90
27559;DHT22;15002;52.028;5.670;2023-08-24T12:31:31;28.60;99.90
27559;DHT22;15002;52.028;5.670;2023-08-24T12:36:25;28.00;99.90
27559;DHT22;15002;52.028;5.670;2023-08-24T12:38:51;28.00;99.90
27559;DHT22;15002;52.028;5.670;2023-08-24T12:41:16;28.30;99.90
27559;DHT22;15002;52.028;5.670;2023-08-24T12:43:42;28.50;99.90
27559;DHT22;15002;52.028;5.670;2023-08-24T12:46:08;28.90;99.90
27559;DHT22;15002;52.028;5.670;2023-08-24T12:48:35;29.00;99.90
27559;DHT22;15002;52.028;5.670;2023-08-24T12:51:00;28.70;99.90
27559;DHT22;15002;52.028;5.670;2023-08-24T12:53:26;28.70;99.90
27559;DHT22;15002;52.028;5.670;2023-08-24T12:55:51;28.50;99.90
27559;DHT22;15002;52.028;5.670;2023-08-24T12:58:17;28.30;99.90
27559;DHT22;15002;52.028;5.670;2023-08-24T13:00:44;28.30;99.90
27559;DHT22;15002;52.028;5.670;2023-08-24T13:03:09;28.20;99.90
27559;DHT22;15002;52.028;5.670;2023-08-24T13:05:36;28.10;99.90
27559;DHT22;15002;52.028;5.670;2023-08-24T13:08:02;28.20;99.90
27559;DHT22;15002;52.028;5.670;2023-08-24T13:10:28;28.30;99.90
27559;DHT22;15002;52.028;5.670;2023-08-24T13:12:53;28.40;99.90
27559;DHT22;15002;52.028;5.670;2023-08-24T13:15:19;28.10;99.90
27559;DHT22;15002;52.028;5.670;2023-08-24T13:17:46;28.30;99.90
27559;DHT22;15002;52.028;5.670;2023-08-24T13:20:12;28.60;99.90
27559;DHT22;15002;52.028;5.670;2023-08-24T13:22:37;28.70;99.90
27559;DHT22;15002;52.028;5.670;2023-08-24T13:25:03;29.00;99.90
27559;DHT22;15002;52.028;5.670;2023-08-24T13:27:30;29.20;99.90
27559;DHT22;15002;52.028;5.670;2023-08-24T13:29:59;29.50;99.90
27559;DHT22;15002;52.028;5.670;2023-08-24T13:32:25;29.50;99.90
27559;DHT22;15002;52.028;5.670;2023-08-24T13:34:50;29.70;99.90
27559;DHT22;15002;52.028;5.670;2023-08-24T13:37:17;29.70;99.90
27559;DHT22;15002;52.028;5.670;2023-08-24T13:39:43;29.70;99.90
27559;DHT22;15002;52.028;5.670;2023-08-24T13:42:08;29.60;99.90
27559;DHT22;15002;52.028;5.670;2023-08-24T13:44:34;29.80;99.90
27559;DHT22;15002;52.028;5.670;2023-08-24T13:47:00;30.20;99.90
27559;DHT22;15002;52.028;5.670;2023-08-24T13:49:25;30.20;99.90
27559;DHT22;15002;52.028;5.670;2023-08-24T13:51:51;29.90;99.90
27559;DHT22;15002;52.028;5.670;2023-08-24T13:54:18;29.90;99.90
27559;DHT22;15002;52.028;5.670;2023-08-24T13:56:44;29.90;99.90
27559;DHT22;15002;52.028;5.670;2023-08-24T13:59:11;30.20;99.90
27559;DHT22;15002;52.028;5.670;2023-08-24T14:01:37;30.10;99.90
27559;DHT22;15002;52.028;5.670;2023-08-24T14:04:03;30.10;99.90
27559;DHT22;15002;52.028;5.670;2023-08-24T14:06:33;29.70;99.90
27559;DHT22;15002;52.028;5.670;2023-08-24T14:09:03;29.80;99.90
27559;DHT22;15002;52.028;5.670;2023-08-24T14:11:29;29.70;99.90
27559;DHT22;15002;52.028;5.670;2023-08-24T14:13:54;29.70;99.90
27559;DHT22;15002;52.028;5.670;2023-08-24T14:16:20;29.70;99.90
27559;DHT22;15002;52.028;5.670;2023-08-24T14:18:46;29.30;99.90
27559;DHT22;15002;52.028;5.670;2023-08-24T14:21:12;28.90;99.90
27559;DHT22;15002;52.028;5.670;2023-08-24T14:23:38;28.80;99.90
27559;DHT22;15002;52.028;5.670;2023-08-24T14:26:04;28.80;99.90
27559;DHT22;15002;52.028;5.670;2023-08-24T14:28:57;29.00;99.90
27559;DHT22;15002;52.028;5.670;2023-08-24T14:31:24;29.00;99.90
27559;DHT22;15002;52.028;5.670;2023-08-24T14:33:51;29.00;99.90
27559;DHT22;15002;52.028;5.670;2023-08-24T14:36:18;28.90;99.90
27559;DHT22;15002;52.028;5.670;2023-08-24T14:38:44;28.70;99.90
27559;DHT22;15002;52.028;5.670;2023-08-24T14:41:11;28.80;99.90
27559;DHT22;15002;52.028;5.670;2023-08-24T14:43:37;28.90;99.90
27559;DHT22;15002;52.028;5.670;2023-08-24T14:46:03;28.60;99.90
27559;DHT22;15002;52.028;5.670;2023-08-24T14:48:29;28.50;99.90
27559;DHT22;15002;52.028;5.670;2023-08-24T14:50:55;28.50;99.90
27559;DHT22;15002;52.028;5.670;2023-08-24T14:53:25;28.40;99.90
27559;DHT22;15002;52.028;5.670;2023-08-24T14:55:52;28.40;99.90
27559;DHT22;15002;52.028;5.670;2023-08-24T14:58:20;28.50;99.90
27559;DHT22;15002;52.028;5.670;2023-08-24T15:00:47;28.50;99.90
27559;DHT22;15002;52.028;5.670;2023-08-24T15:03:13;28.20;99.90
27559;DHT22;15002;52.028;5.670;2023-08-24T15:05:44;28.30;99.90
27559;DHT22;15002;52.028;5.670;2023-08-24T15:08:10;28.30;99.90
27559;DHT22;15002;52.028;5.670;2023-08-24T15:10:37;28.40;99.90
27559;DHT22;15002;52.028;5.670;2023-08-24T15:13:03;28.20;99.90
27559;DHT22;15002;52.028;5.670;2023-08-24T15:15:29;28.20;99.90
27559;DHT22;15002;52.028;5.670;2023-08-24T15:17:54;28.20;99.90
27559;DHT22;15002;52.028;5.670;2023-08-24T15:20:20;28.50;99.90
27559;DHT22;15002;52.028;5.670;2023-08-24T15:22:46;28.10;99.90
27559;DHT22;15002;52.028;5.670;2023-08-24T15:25:11;27.90;99.90
27559;DHT22;15002;52.028;5.670;2023-08-24T15:27:37;27.80;99.90
27559;DHT22;15002;52.028;5.670;2023-08-24T15:30:03;28.00;99.90
27559;DHT22;15002;52.028;5.670;2023-08-24T15:32:31;28.10;99.90
27559;DHT22;15002;52.028;5.670;2023-08-24T15:34:57;28.00;99.90
27559;DHT22;15002;52.028;5.670;2023-08-24T15:37:23;28.00;99.90
27559;DHT22;15002;52.028;5.670;2023-08-24T15:39:49;28.00;99.90